sensor_id;sensor_type;location;lat;lon;timestamp;P1;durP1;ratioP1;P2;durP2;ratioP2
34196;SDS011;36594;45.192;5.722;2023-04-08T00:01:29;0.70;;;0.70;;
34196;SDS011;36594;45.192;5.722;2023-04-08T00:04:17;1.12;;;0.50;;
34196;SDS011;36594;45.192;5.722;2023-04-08T00:07:06;0.65;;;0.65;;
34196;SDS011;36594;45.192;5.722;2023-04-08T00:09:55;0.50;;;0.50;;
34196;SDS011;36594;45.192;5.722;2023-04-08T00:12:43;0.70;;;0.70;;
34196;SDS011;36594;45.192;5.722;2023-04-08T00:15:35;0.50;;;0.50;;
34196;SDS011;36594;45.192;5.722;2023-04-08T00:18:24;0.60;;;0.60;;
34196;SDS011;36594;45.192;5.722;2023-04-08T00:21:13;1.50;;;0.57;;
34196;SDS011;36594;45.192;5.722;2023-04-08T00:24:07;0.50;;;0.50;;
34196;SDS011;36594;45.192;5.722;2023-04-08T00:26:56;0.50;;;0.50;;
34196;SDS011;36594;45.192;5.722;2023-04-08T00:29:44;0.50;;;0.50;;
34196;SDS011;36594;45.192;5.722;2023-04-08T00:32:33;0.68;;;0.68;;
34196;SDS011;36594;45.192;5.722;2023-04-08T00:35:21;0.62;;;0.60;;
34196;SDS011;36594;45.192;5.722;2023-04-08T00:38:10;0.85;;;0.85;;
34196;SDS011;36594;45.192;5.722;2023-04-08T00:40:58;0.60;;;0.60;;
34196;SDS011;36594;45.192;5.722;2023-04-08T00:43:46;0.50;;;0.50;;
34196;SDS011;36594;45.192;5.722;2023-04-08T00:46:36;0.42;;;0.42;;
34196;SDS011;36594;45.192;5.722;2023-04-08T00:49:26;0.40;;;0.40;;
34196;SDS011;36594;45.192;5.722;2023-04-08T00:52:14;0.65;;;0.65;;
34196;SDS011;36594;45.192;5.722;2023-04-08T00:55:03;0.57;;;0.57;;
34196;SDS011;36594;45.192;5.722;2023-04-08T00:57:52;0.57;;;0.57;;
34196;SDS011;36594;45.192;5.722;2023-04-08T01:00:51;0.68;;;0.57;;
34196;SDS011;36594;45.192;5.722;2023-04-08T01:03:41;0.60;;;0.60;;
34196;SDS011;36594;45.192;5.722;2023-04-08T01:09:29;0.47;;;0.47;;
34196;SDS011;36594;45.192;5.722;2023-04-08T01:12:25;0.50;;;0.50;;
34196;SDS011;36594;45.192;5.722;2023-04-08T01:15:16;0.45;;;0.45;;
34196;SDS011;36594;45.192;5.722;2023-04-08T01:18:06;0.40;;;0.40;;
34196;SDS011;36594;45.192;5.722;2023-04-08T01:20:57;1.12;;;0.47;;
34196;SDS011;36594;45.192;5.722;2023-04-08T01:26:47;0.60;;;0.60;;
34196;SDS011;36594;45.192;5.722;2023-04-08T01:29:36;0.40;;;0.40;;
34196;SDS011;36594;45.192;5.722;2023-04-08T01:32:26;0.50;;;0.50;;
34196;SDS011;36594;45.192;5.722;2023-04-08T01:35:17;0.60;;;0.60;;
34196;SDS011;36594;45.192;5.722;2023-04-08T01:38:09;0.40;;;0.40;;
34196;SDS011;36594;45.192;5.722;2023-04-08T01:41:00;0.40;;;0.40;;
34196;SDS011;36594;45.192;5.722;2023-04-08T01:43:51;0.40;;;0.40;;
34196;SDS011;36594;45.192;5.722;2023-04-08T01:46:42;0.42;;;0.42;;
34196;SDS011;36594;45.192;5.722;2023-04-08T01:49:31;0.50;;;0.50;;
34196;SDS011;36594;45.192;5.722;2023-04-08T01:52:21;0.53;;;0.53;;
34196;SDS011;36594;45.192;5.722;2023-04-08T01:55:12;0.53;;;0.53;;
34196;SDS011;36594;45.192;5.722;2023-04-08T01:58:00;0.50;;;0.50;;
34196;SDS011;36594;45.192;5.722;2023-04-08T02:00:52;0.50;;;0.50;;
34196;SDS011;36594;45.192;5.722;2023-04-08T02:03:43;0.63;;;0.63;;
34196;SDS011;36594;45.192;5.722;2023-04-08T02:06:33;0.40;;;0.40;;
34196;SDS011;36594;45.192;5.722;2023-04-08T02:09:23;1.50;;;0.60;;
34196;SDS011;36594;45.192;5.722;2023-04-08T02:12:12;0.60;;;0.60;;
34196;SDS011;36594;45.192;5.722;2023-04-08T02:15:01;0.30;;;0.30;;
34196;SDS011;36594;45.192;5.722;2023-04-08T02:17:51;0.57;;;0.57;;
34196;SDS011;36594;45.192;5.722;2023-04-08T02:20:46;0.40;;;0.40;;
34196;SDS011;36594;45.192;5.722;2023-04-08T02:23:37;0.60;;;0.60;;
34196;SDS011;36594;45.192;5.722;2023-04-08T02:26:27;0.50;;;0.50;;
34196;SDS011;36594;45.192;5.722;2023-04-08T02:29:17;0.60;;;0.60;;
34196;SDS011;36594;45.192;5.722;2023-04-08T02:32:08;0.40;;;0.40;;
34196;SDS011;36594;45.192;5.722;2023-04-08T02:34:58;0.50;;;0.50;;
34196;SDS011;36594;45.192;5.722;2023-04-08T02:37:49;0.37;;;0.37;;
34196;SDS011;36594;45.192;5.722;2023-04-08T02:40:38;0.50;;;0.50;;
34196;SDS011;36594;45.192;5.722;2023-04-08T02:43:26;0.50;;;0.50;;
34196;SDS011;36594;45.192;5.722;2023-04-08T02:46:17;0.68;;;0.68;;
34196;SDS011;36594;45.192;5.722;2023-04-08T02:49:07;0.37;;;0.37;;
34196;SDS011;36594;45.192;5.722;2023-04-08T02:51:55;0.42;;;0.42;;
34196;SDS011;36594;45.192;5.722;2023-04-08T02:54:44;0.50;;;0.50;;
34196;SDS011;36594;45.192;5.722;2023-04-08T02:57:32;0.60;;;0.60;;
34196;SDS011;36594;45.192;5.722;2023-04-08T03:00:21;0.37;;;0.37;;
34196;SDS011;36594;45.192;5.722;2023-04-08T03:03:09;0.50;;;0.50;;
34196;SDS011;36594;45.192;5.722;2023-04-08T03:05:57;0.37;;;0.37;;
34196;SDS011;36594;45.192;5.722;2023-04-08T03:08:45;0.30;;;0.30;;
34196;SDS011;36594;45.192;5.722;2023-04-08T03:11:34;0.42;;;0.42;;
34196;SDS011;36594;45.192;5.722;2023-04-08T03:14:22;0.50;;;0.50;;
34196;SDS011;36594;45.192;5.722;2023-04-08T03:17:10;0.40;;;0.40;;
34196;SDS011;36594;45.192;5.722;2023-04-08T03:19:59;0.40;;;0.40;;
34196;SDS011;36594;45.192;5.722;2023-04-08T03:22:49;0.40;;;0.40;;
34196;SDS011;36594;45.192;5.722;2023-04-08T03:25:38;0.40;;;0.40;;
34196;SDS011;36594;45.192;5.722;2023-04-08T03:28:26;0.45;;;0.45;;
34196;SDS011;36594;45.192;5.722;2023-04-08T03:31:15;0.50;;;0.50;;
34196;SDS011;36594;45.192;5.722;2023-04-08T03:34:03;0.80;;;0.40;;
34196;SDS011;36594;45.192;5.722;2023-04-08T03:36:51;0.40;;;0.40;;
34196;SDS011;36594;45.192;5.722;2023-04-08T03:39:40;0.25;;;0.25;;
34196;SDS011;36594;45.192;5.722;2023-04-08T03:42:28;0.30;;;0.30;;
34196;SDS011;36594;45.192;5.722;2023-04-08T03:45:16;0.50;;;0.50;;
34196;SDS011;36594;45.192;5.722;2023-04-08T03:48:04;0.47;;;0.42;;
34196;SDS011;36594;45.192;5.722;2023-04-08T03:50:54;0.30;;;0.30;;
34196;SDS011;36594;45.192;5.722;2023-04-08T03:53:42;0.60;;;0.57;;
34196;SDS011;36594;45.192;5.722;2023-04-08T03:56:30;0.40;;;0.40;;
34196;SDS011;36594;45.192;5.722;2023-04-08T03:59:19;0.50;;;0.50;;
34196;SDS011;36594;45.192;5.722;2023-04-08T04:02:08;0.30;;;0.30;;
34196;SDS011;36594;45.192;5.722;2023-04-08T04:04:56;0.40;;;0.40;;
34196;SDS011;36594;45.192;5.722;2023-04-08T04:07:44;0.80;;;0.40;;
34196;SDS011;36594;45.192;5.722;2023-04-08T04:10:33;0.60;;;0.60;;
34196;SDS011;36594;45.192;5.722;2023-04-08T04:13:21;0.35;;;0.35;;
34196;SDS011;36594;45.192;5.722;2023-04-08T04:16:10;0.50;;;0.50;;
34196;SDS011;36594;45.192;5.722;2023-04-08T04:18:58;0.80;;;0.40;;
34196;SDS011;36594;45.192;5.722;2023-04-08T04:21:47;0.30;;;0.30;;
34196;SDS011;36594;45.192;5.722;2023-04-08T04:24:35;0.40;;;0.40;;
34196;SDS011;36594;45.192;5.722;2023-04-08T04:27:23;0.35;;;0.35;;
34196;SDS011;36594;45.192;5.722;2023-04-08T04:30:12;0.40;;;0.40;;
34196;SDS011;36594;45.192;5.722;2023-04-08T04:33:01;0.40;;;0.40;;
34196;SDS011;36594;45.192;5.722;2023-04-08T04:35:49;0.40;;;0.40;;
34196;SDS011;36594;45.192;5.722;2023-04-08T04:38:37;0.45;;;0.45;;
34196;SDS011;36594;45.192;5.722;2023-04-08T04:41:26;0.30;;;0.30;;
34196;SDS011;36594;45.192;5.722;2023-04-08T04:44:14;0.42;;;0.42;;
34196;SDS011;36594;45.192;5.722;2023-04-08T04:47:03;0.30;;;0.30;;
34196;SDS011;36594;45.192;5.722;2023-04-08T04:49:51;0.40;;;0.40;;
34196;SDS011;36594;45.192;5.722;2023-04-08T04:52:39;0.30;;;0.30;;
34196;SDS011;36594;45.192;5.722;2023-04-08T04:55:28;0.57;;;0.57;;
34196;SDS011;36594;45.192;5.722;2023-04-08T04:58:16;0.40;;;0.40;;
34196;SDS011;36594;45.192;5.722;2023-04-08T05:01:05;0.40;;;0.40;;
34196;SDS011;36594;45.192;5.722;2023-04-08T05:03:53;0.60;;;0.50;;
34196;SDS011;36594;45.192;5.722;2023-04-08T05:06:42;0.40;;;0.40;;
34196;SDS011;36594;45.192;5.722;2023-04-08T05:09:30;0.60;;;0.60;;
34196;SDS011;36594;45.192;5.722;2023-04-08T05:12:18;0.60;;;0.47;;
34196;SDS011;36594;45.192;5.722;2023-04-08T05:15:07;0.40;;;0.40;;
34196;SDS011;36594;45.192;5.722;2023-04-08T05:17:56;0.35;;;0.35;;
34196;SDS011;36594;45.192;5.722;2023-04-08T05:20:45;0.50;;;0.50;;
34196;SDS011;36594;45.192;5.722;2023-04-08T05:23:34;0.33;;;0.27;;
34196;SDS011;36594;45.192;5.722;2023-04-08T05:26:22;0.40;;;0.40;;
34196;SDS011;36594;45.192;5.722;2023-04-08T05:29:11;0.50;;;0.50;;
34196;SDS011;36594;45.192;5.722;2023-04-08T05:32:00;0.55;;;0.37;;
34196;SDS011;36594;45.192;5.722;2023-04-08T05:34:48;0.50;;;0.50;;
34196;SDS011;36594;45.192;5.722;2023-04-08T05:37:37;0.60;;;0.60;;
34196;SDS011;36594;45.192;5.722;2023-04-08T05:40:25;0.47;;;0.47;;
34196;SDS011;36594;45.192;5.722;2023-04-08T05:43:13;0.40;;;0.40;;
34196;SDS011;36594;45.192;5.722;2023-04-08T05:46:05;0.50;;;0.50;;
34196;SDS011;36594;45.192;5.722;2023-04-08T05:48:54;0.30;;;0.30;;
34196;SDS011;36594;45.192;5.722;2023-04-08T05:51:42;0.40;;;0.40;;
34196;SDS011;36594;45.192;5.722;2023-04-08T05:54:31;1.30;;;0.50;;
34196;SDS011;36594;45.192;5.722;2023-04-08T05:57:19;0.30;;;0.30;;
34196;SDS011;36594;45.192;5.722;2023-04-08T06:00:08;0.50;;;0.50;;
34196;SDS011;36594;45.192;5.722;2023-04-08T06:02:57;0.40;;;0.40;;
34196;SDS011;36594;45.192;5.722;2023-04-08T06:05:46;0.33;;;0.33;;
34196;SDS011;36594;45.192;5.722;2023-04-08T06:08:34;0.50;;;0.50;;
34196;SDS011;36594;45.192;5.722;2023-04-08T06:11:22;0.35;;;0.35;;
34196;SDS011;36594;45.192;5.722;2023-04-08T06:14:11;0.50;;;0.50;;
34196;SDS011;36594;45.192;5.722;2023-04-08T06:16:59;0.30;;;0.30;;
34196;SDS011;36594;45.192;5.722;2023-04-08T06:19:48;0.50;;;0.50;;
34196;SDS011;36594;45.192;5.722;2023-04-08T06:22:36;0.40;;;0.40;;
34196;SDS011;36594;45.192;5.722;2023-04-08T06:25:24;0.35;;;0.35;;
34196;SDS011;36594;45.192;5.722;2023-04-08T06:28:13;0.80;;;0.40;;
34196;SDS011;36594;45.192;5.722;2023-04-08T06:31:01;0.37;;;0.37;;
34196;SDS011;36594;45.192;5.722;2023-04-08T06:33:50;0.40;;;0.40;;
34196;SDS011;36594;45.192;5.722;2023-04-08T06:36:38;0.25;;;0.25;;
34196;SDS011;36594;45.192;5.722;2023-04-08T06:39:26;0.35;;;0.35;;
34196;SDS011;36594;45.192;5.722;2023-04-08T06:42:15;0.30;;;0.30;;
34196;SDS011;36594;45.192;5.722;2023-04-08T06:45:05;1.00;;;0.42;;
34196;SDS011;36594;45.192;5.722;2023-04-08T06:47:54;0.40;;;0.40;;
34196;SDS011;36594;45.192;5.722;2023-04-08T06:50:42;0.40;;;0.40;;
34196;SDS011;36594;45.192;5.722;2023-04-08T06:53:30;0.45;;;0.45;;
34196;SDS011;36594;45.192;5.722;2023-04-08T06:56:19;0.43;;;0.43;;
34196;SDS011;36594;45.192;5.722;2023-04-08T06:59:08;0.40;;;0.40;;
34196;SDS011;36594;45.192;5.722;2023-04-08T07:01:56;0.53;;;0.53;;
34196;SDS011;36594;45.192;5.722;2023-04-08T07:04:44;0.25;;;0.25;;
34196;SDS011;36594;45.192;5.722;2023-04-08T07:07:33;0.40;;;0.40;;
34196;SDS011;36594;45.192;5.722;2023-04-08T07:10:21;0.50;;;0.50;;
34196;SDS011;36594;45.192;5.722;2023-04-08T07:13:10;0.53;;;0.53;;
34196;SDS011;36594;45.192;5.722;2023-04-08T07:15:58;1.03;;;1.03;;
34196;SDS011;36594;45.192;5.722;2023-04-08T07:18:47;0.80;;;0.80;;
34196;SDS011;36594;45.192;5.722;2023-04-08T07:21:35;1.00;;;1.00;;
34196;SDS011;36594;45.192;5.722;2023-04-08T07:24:23;0.77;;;0.60;;
34196;SDS011;36594;45.192;5.722;2023-04-08T07:27:12;0.60;;;0.60;;
34196;SDS011;36594;45.192;5.722;2023-04-08T07:30:00;0.50;;;0.50;;
34196;SDS011;36594;45.192;5.722;2023-04-08T07:32:49;0.53;;;0.53;;
34196;SDS011;36594;45.192;5.722;2023-04-08T07:35:38;0.78;;;0.50;;
34196;SDS011;36594;45.192;5.722;2023-04-08T07:38:27;0.60;;;0.60;;
34196;SDS011;36594;45.192;5.722;2023-04-08T07:41:15;0.60;;;0.60;;
34196;SDS011;36594;45.192;5.722;2023-04-08T07:44:04;0.50;;;0.50;;
34196;SDS011;36594;45.192;5.722;2023-04-08T07:46:53;0.80;;;0.80;;
34196;SDS011;36594;45.192;5.722;2023-04-08T07:49:41;0.80;;;0.50;;
34196;SDS011;36594;45.192;5.722;2023-04-08T07:52:31;0.57;;;0.57;;
34196;SDS011;36594;45.192;5.722;2023-04-08T07:55:20;0.50;;;0.50;;
34196;SDS011;36594;45.192;5.722;2023-04-08T07:58:08;0.60;;;0.60;;
34196;SDS011;36594;45.192;5.722;2023-04-08T08:00:57;0.50;;;0.50;;
34196;SDS011;36594;45.192;5.722;2023-04-08T08:03:45;0.57;;;0.57;;
34196;SDS011;36594;45.192;5.722;2023-04-08T08:06:34;0.50;;;0.50;;
34196;SDS011;36594;45.192;5.722;2023-04-08T08:09:23;0.67;;;0.67;;
34196;SDS011;36594;45.192;5.722;2023-04-08T08:12:12;0.57;;;0.57;;
34196;SDS011;36594;45.192;5.722;2023-04-08T08:15:00;0.40;;;0.40;;
34196;SDS011;36594;45.192;5.722;2023-04-08T08:17:48;0.50;;;0.50;;
34196;SDS011;36594;45.192;5.722;2023-04-08T08:20:37;0.42;;;0.42;;
34196;SDS011;36594;45.192;5.722;2023-04-08T08:23:26;0.62;;;0.62;;
34196;SDS011;36594;45.192;5.722;2023-04-08T08:26:14;0.50;;;0.50;;
34196;SDS011;36594;45.192;5.722;2023-04-08T08:29:02;0.57;;;0.57;;
34196;SDS011;36594;45.192;5.722;2023-04-08T08:31:53;2.00;;;0.60;;
34196;SDS011;36594;45.192;5.722;2023-04-08T08:34:41;0.55;;;0.55;;
34196;SDS011;36594;45.192;5.722;2023-04-08T08:37:29;0.57;;;0.57;;
34196;SDS011;36594;45.192;5.722;2023-04-08T08:40:18;0.47;;;0.47;;
34196;SDS011;36594;45.192;5.722;2023-04-08T08:43:06;0.60;;;0.50;;
34196;SDS011;36594;45.192;5.722;2023-04-08T08:45:56;0.62;;;0.62;;
34196;SDS011;36594;45.192;5.722;2023-04-08T08:48:44;0.60;;;0.60;;
34196;SDS011;36594;45.192;5.722;2023-04-08T08:51:33;1.13;;;0.60;;
34196;SDS011;36594;45.192;5.722;2023-04-08T08:54:23;0.47;;;0.47;;
34196;SDS011;36594;45.192;5.722;2023-04-08T08:57:22;0.80;;;0.80;;
34196;SDS011;36594;45.192;5.722;2023-04-08T09:00:06;1.60;;;0.50;;
34196;SDS011;36594;45.192;5.722;2023-04-08T09:02:55;0.95;;;0.95;;
34196;SDS011;36594;45.192;5.722;2023-04-08T09:05:47;1.52;;;1.15;;
34196;SDS011;36594;45.192;5.722;2023-04-08T09:08:37;1.15;;;1.10;;
34196;SDS011;36594;45.192;5.722;2023-04-08T09:11:25;0.85;;;0.85;;
34196;SDS011;36594;45.192;5.722;2023-04-08T09:14:20;1.87;;;1.20;;
34196;SDS011;36594;45.192;5.722;2023-04-08T09:17:11;1.00;;;0.85;;
34196;SDS011;36594;45.192;5.722;2023-04-08T09:20:03;1.42;;;0.75;;
34196;SDS011;36594;45.192;5.722;2023-04-08T09:22:59;1.10;;;0.90;;
34196;SDS011;36594;45.192;5.722;2023-04-08T09:25:49;0.80;;;0.80;;
34196;SDS011;36594;45.192;5.722;2023-04-08T09:28:39;0.80;;;0.80;;
34196;SDS011;36594;45.192;5.722;2023-04-08T09:31:30;0.60;;;0.60;;
34196;SDS011;36594;45.192;5.722;2023-04-08T09:34:22;0.65;;;0.62;;
34196;SDS011;36594;45.192;5.722;2023-04-08T09:37:12;0.93;;;0.90;;
34196;SDS011;36594;45.192;5.722;2023-04-08T09:40:02;1.90;;;0.90;;
34196;SDS011;36594;45.192;5.722;2023-04-08T09:42:50;0.80;;;0.80;;
34196;SDS011;36594;45.192;5.722;2023-04-08T09:45:41;0.60;;;0.60;;
34196;SDS011;36594;45.192;5.722;2023-04-08T09:48:34;1.20;;;1.10;;
34196;SDS011;36594;45.192;5.722;2023-04-08T09:51:24;1.20;;;0.93;;
34196;SDS011;36594;45.192;5.722;2023-04-08T09:54:19;1.20;;;0.88;;
34196;SDS011;36594;45.192;5.722;2023-04-08T09:57:09;0.80;;;0.80;;
34196;SDS011;36594;45.192;5.722;2023-04-08T10:00:03;1.60;;;0.88;;
34196;SDS011;36594;45.192;5.722;2023-04-08T10:03:08;0.93;;;0.93;;
34196;SDS011;36594;45.192;5.722;2023-04-08T10:06:03;1.00;;;0.90;;
34196;SDS011;36594;45.192;5.722;2023-04-08T10:09:00;1.07;;;0.97;;
34196;SDS011;36594;45.192;5.722;2023-04-08T10:11:44;0.80;;;0.80;;
34196;SDS011;36594;45.192;5.722;2023-04-08T10:14:32;0.80;;;0.80;;
34196;SDS011;36594;45.192;5.722;2023-04-08T10:17:31;0.93;;;0.93;;
34196;SDS011;36594;45.192;5.722;2023-04-08T10:23:52;1.52;;;0.90;;
34196;SDS011;36594;45.192;5.722;2023-04-08T10:26:34;1.00;;;0.90;;
34196;SDS011;36594;45.192;5.722;2023-04-08T10:32:27;1.27;;;0.80;;
34196;SDS011;36594;45.192;5.722;2023-04-08T10:35:16;1.23;;;1.13;;
34196;SDS011;36594;45.192;5.722;2023-04-08T10:38:07;0.87;;;0.87;;
34196;SDS011;36594;45.192;5.722;2023-04-08T10:40:56;1.10;;;1.02;;
34196;SDS011;36594;45.192;5.722;2023-04-08T10:43:44;0.90;;;0.90;;
34196;SDS011;36594;45.192;5.722;2023-04-08T10:46:37;0.80;;;0.80;;
34196;SDS011;36594;45.192;5.722;2023-04-08T10:49:31;1.00;;;0.95;;
34196;SDS011;36594;45.192;5.722;2023-04-08T10:52:20;0.90;;;0.90;;
34196;SDS011;36594;45.192;5.722;2023-04-08T10:55:09;0.80;;;0.80;;
34196;SDS011;36594;45.192;5.722;2023-04-08T10:58:04;1.05;;;1.00;;
34196;SDS011;36594;45.192;5.722;2023-04-08T11:00:54;0.80;;;0.80;;
34196;SDS011;36594;45.192;5.722;2023-04-08T11:03:42;0.80;;;0.78;;
34196;SDS011;36594;45.192;5.722;2023-04-08T11:06:31;0.80;;;0.80;;
34196;SDS011;36594;45.192;5.722;2023-04-08T11:09:21;0.72;;;0.72;;
34196;SDS011;36594;45.192;5.722;2023-04-08T11:12:09;0.97;;;0.97;;
34196;SDS011;36594;45.192;5.722;2023-04-08T11:14:58;1.10;;;1.10;;
34196;SDS011;36594;45.192;5.722;2023-04-08T11:17:47;1.75;;;0.98;;
34196;SDS011;36594;45.192;5.722;2023-04-08T11:20:36;1.22;;;0.90;;
34196;SDS011;36594;45.192;5.722;2023-04-08T11:23:25;0.80;;;0.80;;
34196;SDS011;36594;45.192;5.722;2023-04-08T11:26:13;1.10;;;1.10;;
34196;SDS011;36594;45.192;5.722;2023-04-08T11:29:03;0.80;;;0.80;;
34196;SDS011;36594;45.192;5.722;2023-04-08T11:31:52;0.98;;;0.98;;
34196;SDS011;36594;45.192;5.722;2023-04-08T11:34:42;0.80;;;0.80;;
34196;SDS011;36594;45.192;5.722;2023-04-08T11:37:37;0.72;;;0.72;;
34196;SDS011;36594;45.192;5.722;2023-04-08T11:40:27;3.30;;;0.90;;
34196;SDS011;36594;45.192;5.722;2023-04-08T11:43:15;0.95;;;0.95;;
34196;SDS011;36594;45.192;5.722;2023-04-08T11:46:10;1.00;;;1.00;;
34196;SDS011;36594;45.192;5.722;2023-04-08T11:48:59;1.17;;;1.07;;
34196;SDS011;36594;45.192;5.722;2023-04-08T11:51:53;1.00;;;1.00;;
34196;SDS011;36594;45.192;5.722;2023-04-08T11:54:43;1.03;;;0.97;;
34196;SDS011;36594;45.192;5.722;2023-04-08T11:57:33;0.80;;;0.80;;
34196;SDS011;36594;45.192;5.722;2023-04-08T12:00:22;0.70;;;0.70;;
34196;SDS011;36594;45.192;5.722;2023-04-08T12:03:12;0.98;;;0.98;;
34196;SDS011;36594;45.192;5.722;2023-04-08T12:06:00;0.90;;;0.90;;
34196;SDS011;36594;45.192;5.722;2023-04-08T12:08:50;0.90;;;0.90;;
34196;SDS011;36594;45.192;5.722;2023-04-08T12:11:39;0.85;;;0.85;;
34196;SDS011;36594;45.192;5.722;2023-04-08T12:14:28;1.00;;;1.00;;
34196;SDS011;36594;45.192;5.722;2023-04-08T12:17:17;0.60;;;0.60;;
34196;SDS011;36594;45.192;5.722;2023-04-08T12:20:06;1.30;;;1.20;;
34196;SDS011;36594;45.192;5.722;2023-04-08T12:22:55;1.10;;;0.90;;
34196;SDS011;36594;45.192;5.722;2023-04-08T12:25:43;0.95;;;0.90;;
34196;SDS011;36594;45.192;5.722;2023-04-08T12:28:31;1.40;;;0.90;;
34196;SDS011;36594;45.192;5.722;2023-04-08T12:31:21;0.93;;;0.93;;
34196;SDS011;36594;45.192;5.722;2023-04-08T12:34:08;0.80;;;0.80;;
34196;SDS011;36594;45.192;5.722;2023-04-08T12:36:57;0.90;;;0.90;;
34196;SDS011;36594;45.192;5.722;2023-04-08T12:39:46;1.02;;;1.02;;
34196;SDS011;36594;45.192;5.722;2023-04-08T12:42:35;0.85;;;0.85;;
34196;SDS011;36594;45.192;5.722;2023-04-08T12:45:23;0.90;;;0.90;;
34196;SDS011;36594;45.192;5.722;2023-04-08T12:48:12;0.90;;;0.90;;
34196;SDS011;36594;45.192;5.722;2023-04-08T12:51:00;1.10;;;1.00;;
34196;SDS011;36594;45.192;5.722;2023-04-08T12:53:49;0.70;;;0.70;;
34196;SDS011;36594;45.192;5.722;2023-04-08T12:56:37;0.90;;;0.90;;
34196;SDS011;36594;45.192;5.722;2023-04-08T12:59:25;0.90;;;0.90;;
34196;SDS011;36594;45.192;5.722;2023-04-08T13:02:13;1.67;;;0.77;;
34196;SDS011;36594;45.192;5.722;2023-04-08T13:05:02;0.97;;;0.97;;
34196;SDS011;36594;45.192;5.722;2023-04-08T13:07:51;1.00;;;1.00;;
34196;SDS011;36594;45.192;5.722;2023-04-08T13:10:40;1.00;;;0.90;;
34196;SDS011;36594;45.192;5.722;2023-04-08T13:13:29;0.90;;;0.90;;
34196;SDS011;36594;45.192;5.722;2023-04-08T13:16:19;0.80;;;0.80;;
34196;SDS011;36594;45.192;5.722;2023-04-08T13:19:07;0.90;;;0.90;;
34196;SDS011;36594;45.192;5.722;2023-04-08T13:21:56;0.90;;;0.90;;
34196;SDS011;36594;45.192;5.722;2023-04-08T13:24:44;1.00;;;1.00;;
34196;SDS011;36594;45.192;5.722;2023-04-08T13:27:33;0.80;;;0.80;;
34196;SDS011;36594;45.192;5.722;2023-04-08T13:30:21;1.00;;;0.90;;
34196;SDS011;36594;45.192;5.722;2023-04-08T13:33:10;0.90;;;0.90;;
34196;SDS011;36594;45.192;5.722;2023-04-08T13:35:58;1.20;;;1.10;;
34196;SDS011;36594;45.192;5.722;2023-04-08T13:38:46;1.00;;;1.00;;
34196;SDS011;36594;45.192;5.722;2023-04-08T13:41:34;1.50;;;1.10;;
34196;SDS011;36594;45.192;5.722;2023-04-08T13:44:23;1.70;;;0.88;;
34196;SDS011;36594;45.192;5.722;2023-04-08T13:47:11;0.90;;;0.90;;
34196;SDS011;36594;45.192;5.722;2023-04-08T13:50:00;0.90;;;0.90;;
34196;SDS011;36594;45.192;5.722;2023-04-08T13:52:49;0.90;;;0.90;;
34196;SDS011;36594;45.192;5.722;2023-04-08T13:55:37;1.07;;;1.00;;
34196;SDS011;36594;45.192;5.722;2023-04-08T13:58:25;0.98;;;0.98;;
34196;SDS011;36594;45.192;5.722;2023-04-08T14:01:14;0.87;;;0.87;;
34196;SDS011;36594;45.192;5.722;2023-04-08T14:04:02;1.00;;;1.00;;
34196;SDS011;36594;45.192;5.722;2023-04-08T14:06:50;1.22;;;1.12;;
34196;SDS011;36594;45.192;5.722;2023-04-08T14:09:39;1.10;;;1.10;;
34196;SDS011;36594;45.192;5.722;2023-04-08T14:12:27;1.15;;;1.15;;
34196;SDS011;36594;45.192;5.722;2023-04-08T14:15:15;1.15;;;1.00;;
34196;SDS011;36594;45.192;5.722;2023-04-08T14:18:04;1.25;;;1.00;;
34196;SDS011;36594;45.192;5.722;2023-04-08T14:20:53;1.12;;;1.12;;
34196;SDS011;36594;45.192;5.722;2023-04-08T14:23:42;1.15;;;1.15;;
34196;SDS011;36594;45.192;5.722;2023-04-08T14:26:30;1.02;;;1.02;;
34196;SDS011;36594;45.192;5.722;2023-04-08T14:29:20;1.15;;;1.15;;
34196;SDS011;36594;45.192;5.722;2023-04-08T14:32:08;0.90;;;0.90;;
34196;SDS011;36594;45.192;5.722;2023-04-08T14:34:56;1.00;;;1.00;;
34196;SDS011;36594;45.192;5.722;2023-04-08T14:37:44;1.00;;;1.00;;
34196;SDS011;36594;45.192;5.722;2023-04-08T14:40:33;1.10;;;1.00;;
34196;SDS011;36594;45.192;5.722;2023-04-08T14:43:22;0.70;;;0.70;;
34196;SDS011;36594;45.192;5.722;2023-04-08T14:46:10;0.80;;;0.80;;
34196;SDS011;36594;45.192;5.722;2023-04-08T14:48:58;1.37;;;1.00;;
34196;SDS011;36594;45.192;5.722;2023-04-08T14:51:47;0.95;;;0.95;;
34196;SDS011;36594;45.192;5.722;2023-04-08T14:54:35;1.07;;;1.07;;
34196;SDS011;36594;45.192;5.722;2023-04-08T14:57:24;0.70;;;0.70;;
34196;SDS011;36594;45.192;5.722;2023-04-08T15:00:12;1.10;;;1.10;;
34196;SDS011;36594;45.192;5.722;2023-04-08T15:03:01;0.85;;;0.85;;
34196;SDS011;36594;45.192;5.722;2023-04-08T15:05:49;1.20;;;1.03;;
34196;SDS011;36594;45.192;5.722;2023-04-08T15:08:38;1.00;;;1.00;;
34196;SDS011;36594;45.192;5.722;2023-04-08T15:11:28;1.60;;;0.98;;
34196;SDS011;36594;45.192;5.722;2023-04-08T15:14:16;1.07;;;1.05;;
34196;SDS011;36594;45.192;5.722;2023-04-08T15:17:05;1.00;;;1.00;;
34196;SDS011;36594;45.192;5.722;2023-04-08T15:19:53;0.85;;;0.85;;
34196;SDS011;36594;45.192;5.722;2023-04-08T15:22:42;1.00;;;1.00;;
34196;SDS011;36594;45.192;5.722;2023-04-08T15:25:31;1.67;;;1.00;;
34196;SDS011;36594;45.192;5.722;2023-04-08T15:28:19;0.80;;;0.80;;
34196;SDS011;36594;45.192;5.722;2023-04-08T15:31:08;1.00;;;0.85;;
34196;SDS011;36594;45.192;5.722;2023-04-08T15:33:56;1.10;;;1.10;;
34196;SDS011;36594;45.192;5.722;2023-04-08T15:36:45;1.20;;;1.10;;
34196;SDS011;36594;45.192;5.722;2023-04-08T15:39:33;0.98;;;0.98;;
34196;SDS011;36594;45.192;5.722;2023-04-08T15:42:22;0.80;;;0.80;;
34196;SDS011;36594;45.192;5.722;2023-04-08T15:45:11;0.80;;;0.80;;
34196;SDS011;36594;45.192;5.722;2023-04-08T15:47:59;0.90;;;0.90;;
34196;SDS011;36594;45.192;5.722;2023-04-08T15:50:47;0.80;;;0.80;;
34196;SDS011;36594;45.192;5.722;2023-04-08T15:53:36;0.80;;;0.80;;
34196;SDS011;36594;45.192;5.722;2023-04-08T15:56:25;1.40;;;0.90;;
34196;SDS011;36594;45.192;5.722;2023-04-08T15:59:15;0.72;;;0.60;;
34196;SDS011;36594;45.192;5.722;2023-04-08T16:02:03;0.75;;;0.75;;
34196;SDS011;36594;45.192;5.722;2023-04-08T16:04:52;4.95;;;0.70;;
34196;SDS011;36594;45.192;5.722;2023-04-08T16:07:41;2.20;;;1.00;;
34196;SDS011;36594;45.192;5.722;2023-04-08T16:10:29;0.90;;;0.90;;
34196;SDS011;36594;45.192;5.722;2023-04-08T16:13:19;0.88;;;0.88;;
34196;SDS011;36594;45.192;5.722;2023-04-08T16:16:07;0.80;;;0.80;;
34196;SDS011;36594;45.192;5.722;2023-04-08T16:18:57;0.70;;;0.70;;
34196;SDS011;36594;45.192;5.722;2023-04-08T16:21:47;1.60;;;1.00;;
34196;SDS011;36594;45.192;5.722;2023-04-08T16:24:36;0.70;;;0.70;;
34196;SDS011;36594;45.192;5.722;2023-04-08T16:27:24;0.80;;;0.80;;
34196;SDS011;36594;45.192;5.722;2023-04-08T16:30:13;0.70;;;0.70;;
34196;SDS011;36594;45.192;5.722;2023-04-08T16:33:02;0.70;;;0.70;;
34196;SDS011;36594;45.192;5.722;2023-04-08T16:35:51;0.72;;;0.72;;
34196;SDS011;36594;45.192;5.722;2023-04-08T16:38:39;0.90;;;0.90;;
34196;SDS011;36594;45.192;5.722;2023-04-08T16:41:27;1.10;;;1.00;;
34196;SDS011;36594;45.192;5.722;2023-04-08T16:44:16;0.75;;;0.75;;
34196;SDS011;36594;45.192;5.722;2023-04-08T16:47:05;2.13;;;0.90;;
34196;SDS011;36594;45.192;5.722;2023-04-08T16:49:53;0.75;;;0.75;;
34196;SDS011;36594;45.192;5.722;2023-04-08T16:52:41;0.80;;;0.80;;
34196;SDS011;36594;45.192;5.722;2023-04-08T16:55:31;1.00;;;0.80;;
34196;SDS011;36594;45.192;5.722;2023-04-08T16:58:20;0.82;;;0.65;;
34196;SDS011;36594;45.192;5.722;2023-04-08T17:01:09;0.70;;;0.70;;
34196;SDS011;36594;45.192;5.722;2023-04-08T17:04:01;0.70;;;0.70;;
34196;SDS011;36594;45.192;5.722;2023-04-08T17:06:49;0.80;;;0.80;;
34196;SDS011;36594;45.192;5.722;2023-04-08T17:09:37;0.80;;;0.70;;
34196;SDS011;36594;45.192;5.722;2023-04-08T17:12:28;0.80;;;0.80;;